createdAt,value
2019-04-27T00:01:55.522Z,60.10
2019-04-27T00:04:32.889Z,60.10
2019-04-27T00:07:03.666Z,60.00
2019-04-27T00:09:37.459Z,60.30
2019-04-27T00:12:11.029Z,60.20
2019-04-27T00:14:40.280Z,59.90
2019-04-27T00:17:44.911Z,60.30
2019-04-27T00:19:59.438Z,60.70
2019-04-27T00:22:30.195Z,60.50
2019-04-27T00:24:59.402Z,61.50
2019-04-27T00:27:28.404Z,61.30
2019-04-27T00:29:57.739Z,61.20
2019-04-27T00:32:27.060Z,61.00
2019-04-27T00:34:56.298Z,61.90
2019-04-27T00:37:27.016Z,61.70
2019-04-27T00:40:03.607Z,61.80
2019-04-27T00:42:33.316Z,62.50
2019-04-27T00:45:05.388Z,62.40
2019-04-27T00:47:35.059Z,62.90
2019-04-27T00:50:06.323Z,62.20
2019-04-27T00:52:35.612Z,62.40
2019-04-27T00:55:06.297Z,62.60
2019-04-27T00:57:55.364Z,62.80
2019-04-27T01:00:33.319Z,63.20
2019-04-27T01:03:07.088Z,63.70
2019-04-27T01:05:36.319Z,63.60
2019-04-27T01:08:05.721Z,63.50
2019-04-27T01:10:35.003Z,63.90
2019-04-27T01:13:04.186Z,63.20
2019-04-27T01:15:34.154Z,63.30
2019-04-27T01:18:12.106Z,63.40
2019-04-27T01:20:34.914Z,63.50
2019-04-27T01:23:04.126Z,63.20
2019-04-27T01:25:38.821Z,63.20
2019-04-27T01:28:20.660Z,63.20
2019-04-27T01:30:53.585Z,63.40
2019-04-27T01:33:22.885Z,63.30
2019-04-27T01:35:52.114Z,62.90
2019-04-27T01:38:21.462Z,63.30
2019-04-27T01:40:50.750Z,63.00
2019-04-27T01:43:19.927Z,62.90
2019-04-27T01:45:49.231Z,63.60
2019-04-27T01:48:25.106Z,63.40
2019-04-27T01:50:49.402Z,62.70
2019-04-27T01:53:19.108Z,62.80
2019-04-27T01:55:49.119Z,63.60
2019-04-27T01:58:20.230Z,62.90
2019-04-27T02:01:09.684Z,63.50
2019-04-27T02:03:43.275Z,63.20
2019-04-27T02:06:12.661Z,63.20
2019-04-27T02:08:41.965Z,63.60
2019-04-27T02:11:11.211Z,62.80
2019-04-27T02:13:40.401Z,62.70
2019-04-27T02:16:09.859Z,63.30
2019-04-27T02:18:40.038Z,62.80
2019-04-27T02:21:09.437Z,62.80
2019-04-27T02:23:39.373Z,63.50
2019-04-27T02:26:08.758Z,62.90
2019-04-27T02:28:39.507Z,63.80
2019-04-27T02:31:22.243Z,63.40
2019-04-27T02:34:02.110Z,63.40
2019-04-27T02:36:31.292Z,63.80
2019-04-27T02:39:00.595Z,63.60
2019-04-27T02:41:29.893Z,63.90
2019-04-27T02:44:01.752Z,63.80
2019-04-27T02:46:31.643Z,63.90
2019-04-27T02:49:06.345Z,64.40
2019-04-27T02:51:44.895Z,64.30
2019-04-27T02:54:14.234Z,63.80
2019-04-27T02:56:43.404Z,63.60
2019-04-27T02:59:12.520Z,64.00
2019-04-27T03:01:46.387Z,63.90
2019-04-27T03:04:14.060Z,64.50
2019-04-27T03:06:43.356Z,64.20
2019-04-27T03:09:12.638Z,64.80
2019-04-27T03:11:41.735Z,65.00
2019-04-27T03:14:29.369Z,65.40
2019-04-27T03:16:50.941Z,65.10
2019-04-27T03:19:40.147Z,65.10
2019-04-27T03:22:13.571Z,65.20
2019-04-27T03:25:00.083Z,65.00
2019-04-27T03:27:43.213Z,65.10
2019-04-27T03:30:13.699Z,65.40
2019-04-27T03:32:43.407Z,64.90
2019-04-27T03:35:13.629Z,65.50
2019-04-27T03:37:43.110Z,65.20
2019-04-27T03:40:12.357Z,65.90
2019-04-27T03:42:43.107Z,65.40
2019-04-27T03:45:12.414Z,65.30
2019-04-27T03:47:41.657Z,65.40
2019-04-27T03:50:12.528Z,65.30
2019-04-27T03:52:49.928Z,65.80
2019-04-27T03:55:39.808Z,65.90
2019-04-27T03:58:12.085Z,66.10
2019-04-27T04:00:42.214Z,65.30
2019-04-27T04:03:11.281Z,65.20
2019-04-27T04:05:40.528Z,66.20
2019-04-27T04:08:10.712Z,65.50
2019-04-27T04:10:50.969Z,65.30
2019-04-27T04:13:22.717Z,65.80
2019-04-27T04:15:56.319Z,65.60
2019-04-27T04:18:26.447Z,65.80
2019-04-27T04:20:55.610Z,66.20
2019-04-27T04:23:24.865Z,65.30
2019-04-27T04:25:54.043Z,65.30
2019-04-27T04:28:23.431Z,65.40
2019-04-27T04:30:52.688Z,65.60
2019-04-27T04:33:21.992Z,65.30
2019-04-27T04:35:51.220Z,66.00
2019-04-27T04:38:21.010Z,65.40
2019-04-27T04:41:00.732Z,65.40
2019-04-27T04:43:39.761Z,65.60
2019-04-27T04:46:26.344Z,65.80
2019-04-27T04:48:55.523Z,65.90
2019-04-27T04:51:25.055Z,65.30
2019-04-27T04:53:54.384Z,66.40
2019-04-27T04:56:23.586Z,66.20
2019-04-27T04:58:52.903Z,65.90
2019-04-27T05:01:22.141Z,65.30
2019-04-27T05:03:51.279Z,65.90
2019-04-27T05:06:20.567Z,65.50
2019-04-27T05:08:49.992Z,65.20
2019-04-27T05:11:19.593Z,65.00
2019-04-27T05:13:49.402Z,65.10
2019-04-27T05:16:19.049Z,65.40
2019-04-27T05:18:49.506Z,64.90
2019-04-27T05:21:23.475Z,65.20
2019-04-27T05:23:52.839Z,64.90
2019-04-27T05:26:22.043Z,65.40
2019-04-27T05:28:51.288Z,65.80
2019-04-27T05:31:20.554Z,65.20
2019-04-27T05:33:49.861Z,65.70
2019-04-27T05:36:19.404Z,65.00
2019-04-27T05:38:49.851Z,65.60
2019-04-27T05:41:19.192Z,66.30
2019-04-27T05:43:59.239Z,66.10
2019-04-27T05:46:36.775Z,65.20
2019-04-27T05:49:09.381Z,65.10
2019-04-27T05:51:40.533Z,64.80
2019-04-27T05:54:09.254Z,64.70
2019-04-27T05:56:39.060Z,65.00
2019-04-27T05:59:09.179Z,66.00
2019-04-27T06:01:39.067Z,65.20
2019-04-27T06:04:09.072Z,64.60
2019-04-27T06:06:39.902Z,64.80
2019-04-27T06:09:09.626Z,64.30
2019-04-27T06:11:40.044Z,64.10
2019-04-27T06:14:09.835Z,64.40
2019-04-27T06:16:39.473Z,64.30
2019-04-27T06:19:09.642Z,64.30
2019-04-27T06:21:40.114Z,64.40
2019-04-27T06:24:09.525Z,64.20
2019-04-27T06:26:39.994Z,64.30
2019-04-27T06:29:10.967Z,65.50
2019-04-27T06:31:40.130Z,64.80
2019-04-27T06:34:09.827Z,65.60
2019-04-27T06:36:39.003Z,65.00
2019-04-27T06:39:09.840Z,65.20
2019-04-27T06:41:40.045Z,65.70
2019-04-27T06:44:11.298Z,65.60
2019-04-27T06:46:40.553Z,66.40
2019-04-27T06:49:11.104Z,67.10
2019-04-27T06:51:40.412Z,66.30
2019-04-27T06:54:09.689Z,66.90
2019-04-27T06:56:39.067Z,67.30
2019-04-27T06:59:08.772Z,68.00
2019-04-27T07:01:39.060Z,67.70
2019-04-27T07:04:08.829Z,69.00
2019-04-27T07:06:52.928Z,67.60
2019-04-27T07:09:10.019Z,69.70
2019-04-27T07:11:39.389Z,68.90
2019-04-27T07:14:11.246Z,70.00
2019-04-27T07:16:39.560Z,70.10
2019-04-27T07:19:09.447Z,70.30
2019-04-27T07:21:40.010Z,69.40
2019-04-27T07:24:09.419Z,70.90
2019-04-27T07:26:39.230Z,70.40
2019-04-27T07:29:09.556Z,70.40
2019-04-27T07:31:40.019Z,71.20
2019-04-27T07:34:09.595Z,71.20
2019-04-27T07:36:39.284Z,70.80
2019-04-27T07:39:10.999Z,71.90
2019-04-27T07:41:39.719Z,72.10
2019-04-27T07:44:13.153Z,71.70
2019-04-27T07:46:42.468Z,70.60
2019-04-27T07:49:11.771Z,70.70
2019-04-27T07:51:40.958Z,70.70
2019-04-27T07:54:10.207Z,71.40
2019-04-27T07:56:39.458Z,72.00
2019-04-27T07:59:09.198Z,72.30
2019-04-27T08:01:39.297Z,72.20
2019-04-27T08:04:09.102Z,72.30
2019-04-27T08:06:38.721Z,72.80
2019-04-27T08:09:09.381Z,73.90
2019-04-27T08:11:39.141Z,73.20
2019-04-27T08:14:08.831Z,72.90
2019-04-27T08:16:38.836Z,73.20
2019-04-27T08:19:09.932Z,73.20
2019-04-27T08:21:44.440Z,73.50
2019-04-27T08:24:11.230Z,72.10
2019-04-27T08:26:42.083Z,71.80
2019-04-27T08:29:32.932Z,72.60
2019-04-27T08:32:03.219Z,73.50
2019-04-27T08:34:37.060Z,73.80
2019-04-27T08:37:06.473Z,73.50
2019-04-27T08:39:35.584Z,74.00
2019-04-27T08:42:04.886Z,74.50
2019-04-27T08:44:34.115Z,73.30
2019-04-27T08:47:03.412Z,72.60
2019-04-27T08:49:32.699Z,73.90
2019-04-27T08:52:02.111Z,73.40
2019-04-27T08:54:31.451Z,74.50
2019-04-27T08:57:01.751Z,73.20
2019-04-27T08:59:30.970Z,74.40
2019-04-27T09:02:00.286Z,74.10
2019-04-27T09:04:29.595Z,76.60
2019-04-27T09:07:00.167Z,75.50
2019-04-27T09:09:33.984Z,75.30
2019-04-27T09:12:20.868Z,75.70
2019-04-27T09:14:51.603Z,76.90
2019-04-27T09:17:25.319Z,75.20
2019-04-27T09:19:56.114Z,76.20
2019-04-27T09:22:25.221Z,75.90
2019-04-27T09:24:54.546Z,76.70
2019-04-27T09:27:23.637Z,76.50
2019-04-27T09:29:52.959Z,77.30
2019-04-27T09:32:22.138Z,76.40
2019-04-27T09:34:51.428Z,76.70
2019-04-27T09:37:20.563Z,76.60
2019-04-27T09:39:49.773Z,77.40
2019-04-27T09:42:19.076Z,77.40
2019-04-27T09:44:48.239Z,76.10
2019-04-27T09:47:17.491Z,76.30
2019-04-27T09:49:46.572Z,76.80
2019-04-27T09:52:24.453Z,76.10
2019-04-27T09:54:48.098Z,76.80
2019-04-27T09:57:17.241Z,76.50
2019-04-27T09:59:46.364Z,75.90
2019-04-27T10:02:16.522Z,73.80
2019-04-27T10:04:46.163Z,70.50
2019-04-27T10:07:16.568Z,68.60
2019-04-27T10:09:47.304Z,68.30
2019-04-27T10:12:16.706Z,68.60
2019-04-27T10:14:47.655Z,69.10
2019-04-27T10:17:16.683Z,69.50
2019-04-27T10:19:46.192Z,69.30
2019-04-27T10:22:15.979Z,69.50
2019-04-27T10:24:45.260Z,70.30
2019-04-27T10:27:16.093Z,69.60
2019-04-27T10:29:46.778Z,70.00
2019-04-27T10:32:16.241Z,70.00
2019-04-27T10:34:45.713Z,69.80
2019-04-27T10:37:16.070Z,70.00
2019-04-27T10:39:45.968Z,69.30
2019-04-27T10:42:15.243Z,69.50
2019-04-27T10:44:46.229Z,69.40
2019-04-27T10:47:15.820Z,68.30
2019-04-27T10:49:46.575Z,69.10
2019-04-27T10:52:16.045Z,70.00
2019-04-27T10:54:45.315Z,69.40
2019-04-27T10:57:15.828Z,69.10
2019-04-27T10:59:46.173Z,68.30
2019-04-27T11:02:15.455Z,68.20
2019-04-27T11:04:49.135Z,69.50
2019-04-27T11:07:19.931Z,68.80
2019-04-27T11:09:49.048Z,68.50
2019-04-27T11:12:18.396Z,68.70
2019-04-27T11:14:47.599Z,69.00
2019-04-27T11:17:16.905Z,69.30
2019-04-27T11:19:46.274Z,69.30
2019-04-27T11:22:16.001Z,69.00
2019-04-27T11:24:45.804Z,69.60
2019-04-27T11:27:15.955Z,69.00
2019-04-27T11:29:46.193Z,69.20
2019-04-27T11:32:15.919Z,67.90
2019-04-27T11:34:58.987Z,68.90
2019-04-27T11:37:30.249Z,67.60
2019-04-27T11:39:59.497Z,66.90
2019-04-27T11:42:28.774Z,65.70
2019-04-27T11:44:58.388Z,64.80
2019-04-27T11:47:27.815Z,65.20
2019-04-27T11:49:57.942Z,65.90
2019-04-27T11:52:27.253Z,66.20
2019-04-27T11:54:56.789Z,66.90
2019-04-27T11:57:26.249Z,66.10
2019-04-27T11:59:58.109Z,66.90
2019-04-27T12:02:27.340Z,67.60
2019-04-27T12:04:56.869Z,67.60
2019-04-27T12:07:26.138Z,66.70
2019-04-27T12:09:55.619Z,65.30
2019-04-27T12:12:26.203Z,66.30
2019-04-27T12:14:57.757Z,67.50
2019-04-27T12:17:29.185Z,67.60
2019-04-27T12:19:57.981Z,67.90
2019-04-27T12:22:27.203Z,68.60
2019-04-27T12:24:56.583Z,67.80
2019-04-27T12:27:33.292Z,67.90
2019-04-27T12:30:20.437Z,65.80
2019-04-27T12:32:49.763Z,63.20
2019-04-27T12:35:18.847Z,63.90
2019-04-27T12:37:48.193Z,64.20
2019-04-27T12:40:17.430Z,64.10
2019-04-27T12:42:46.658Z,64.40
2019-04-27T12:45:18.009Z,65.00
2019-04-27T12:47:46.773Z,65.50
2019-04-27T12:50:17.223Z,64.70
2019-04-27T12:52:48.096Z,64.50
2019-04-27T12:55:18.757Z,62.30
2019-04-27T12:57:55.492Z,62.40
2019-04-27T13:00:26.651Z,62.20
2019-04-27T13:02:57.775Z,61.90
2019-04-27T13:05:26.833Z,61.90
2019-04-27T13:07:55.968Z,62.90
2019-04-27T13:10:25.155Z,61.60
2019-04-27T13:12:56.185Z,58.80
2019-04-27T13:15:26.490Z,59.60
2019-04-27T13:17:57.386Z,58.70
2019-04-27T13:20:26.687Z,59.30
2019-04-27T13:22:56.038Z,58.10
2019-04-27T13:25:25.413Z,58.30
2019-04-27T13:28:08.248Z,58.30
2019-04-27T13:30:37.459Z,56.80
2019-04-27T13:33:06.532Z,58.80
2019-04-27T13:35:35.627Z,57.30
2019-04-27T13:38:05.048Z,55.40
2019-04-27T13:40:39.009Z,54.00
2019-04-27T13:43:09.696Z,51.60
2019-04-27T13:45:49.881Z,50.40
2019-04-27T13:48:29.553Z,49.50
2019-04-27T13:51:03.150Z,50.80
2019-04-27T13:53:32.343Z,48.60
2019-04-27T13:56:03.075Z,48.40
2019-04-27T13:58:32.226Z,49.10
2019-04-27T14:01:01.434Z,49.20
2019-04-27T14:03:30.476Z,50.80
2019-04-27T14:06:01.097Z,51.10
2019-04-27T14:08:30.466Z,51.00
2019-04-27T14:11:01.247Z,51.50
2019-04-27T14:13:30.543Z,50.40
2019-04-27T14:15:59.598Z,51.00
2019-04-27T14:18:29.205Z,52.40
2019-04-27T14:20:59.241Z,52.60
2019-04-27T14:23:29.973Z,53.90
2019-04-27T14:26:00.391Z,53.60
2019-04-27T14:28:29.807Z,53.20
2019-04-27T14:30:59.134Z,54.40
2019-04-27T14:33:28.487Z,54.10
2019-04-27T14:35:59.427Z,54.10
2019-04-27T14:38:28.523Z,54.00
2019-04-27T14:40:59.357Z,54.40
2019-04-27T14:43:28.716Z,55.50
2019-04-27T14:45:58.337Z,55.40
2019-04-27T14:48:29.579Z,55.10
2019-04-27T14:50:59.046Z,54.40
2019-04-27T14:53:28.451Z,54.50
2019-04-27T14:55:58.416Z,54.90
2019-04-27T14:58:28.341Z,54.50
2019-04-27T15:00:58.485Z,54.40
2019-04-27T15:03:27.859Z,54.70
2019-04-27T15:05:57.111Z,55.00
2019-04-27T15:08:26.319Z,54.70
2019-04-27T15:10:55.495Z,55.10
2019-04-27T15:13:24.754Z,53.50
2019-04-27T15:15:54.057Z,54.20
2019-04-27T15:18:24.413Z,54.10
2019-04-27T15:20:53.844Z,52.90
2019-04-27T15:23:26.668Z,53.30
2019-04-27T15:25:54.024Z,53.50
2019-04-27T15:28:27.822Z,55.70
2019-04-27T15:30:59.572Z,55.70
2019-04-27T15:33:53.292Z,55.70
2019-04-27T15:36:35.869Z,57.10
2019-04-27T15:39:15.455Z,57.00
2019-04-27T15:41:52.198Z,58.00
2019-04-27T15:44:21.487Z,58.70
2019-04-27T15:46:50.728Z,58.50
2019-04-27T15:49:20.005Z,58.60
2019-04-27T15:51:50.721Z,59.60
2019-04-27T15:54:22.313Z,60.00
2019-04-27T15:56:50.724Z,60.40
2019-04-27T15:59:21.516Z,61.10
2019-04-27T16:01:50.712Z,60.70
2019-04-27T16:04:19.871Z,60.70
2019-04-27T16:06:49.160Z,60.40
2019-04-27T16:09:24.231Z,61.20
2019-04-27T16:11:58.339Z,61.10
2019-04-27T16:14:21.543Z,61.10
2019-04-27T16:16:50.775Z,60.20
2019-04-27T16:19:19.915Z,59.70
2019-04-27T16:21:54.049Z,60.00
2019-04-27T16:24:21.217Z,60.00
2019-04-27T16:26:54.677Z,60.40
2019-04-27T16:29:23.138Z,60.80
2019-04-27T16:31:52.078Z,61.20
2019-04-27T16:34:21.376Z,61.00
2019-04-27T16:36:50.703Z,61.20
2019-04-27T16:39:20.418Z,61.10
2019-04-27T16:41:50.327Z,61.70
2019-04-27T16:44:19.543Z,60.50
2019-04-27T16:46:48.985Z,61.90
2019-04-27T16:49:18.764Z,60.80
2019-04-27T16:51:49.169Z,61.50
2019-04-27T16:54:21.423Z,61.70
2019-04-27T16:56:53.095Z,61.70
2019-04-27T16:59:39.748Z,61.50
2019-04-27T17:01:50.983Z,62.10
2019-04-27T17:04:20.143Z,62.60
2019-04-27T17:06:49.631Z,61.90
2019-04-27T17:09:19.074Z,62.00
2019-04-27T17:11:50.350Z,62.20
2019-04-27T17:14:29.201Z,62.10
2019-04-27T17:16:59.051Z,61.50
2019-04-27T17:19:30.708Z,61.10
2019-04-27T17:22:00.026Z,61.70
2019-04-27T17:24:37.567Z,60.70
2019-04-27T17:27:04.377Z,60.40
2019-04-27T17:29:35.217Z,60.70
2019-04-27T17:32:05.053Z,60.10
2019-04-27T17:34:34.357Z,59.50
2019-04-27T17:37:03.631Z,59.00
2019-04-27T17:39:33.066Z,57.90
2019-04-27T17:42:02.458Z,58.10
2019-04-27T17:44:31.561Z,58.00
2019-04-27T17:47:00.953Z,57.30
2019-04-27T17:49:30.286Z,57.60
2019-04-27T17:51:59.489Z,58.00
2019-04-27T17:54:29.052Z,59.20
2019-04-27T17:56:58.321Z,61.60
2019-04-27T17:59:27.552Z,61.60
2019-04-27T18:02:00.850Z,63.40
2019-04-27T18:04:28.777Z,64.20
2019-04-27T18:07:00.198Z,64.00
2019-04-27T18:09:29.091Z,64.20
2019-04-27T18:11:58.675Z,65.10
2019-04-27T18:14:32.513Z,64.30
2019-04-27T18:16:58.767Z,64.40
2019-04-27T18:19:32.491Z,64.20
2019-04-27T18:22:03.570Z,64.70
2019-04-27T18:24:40.807Z,65.40
2019-04-27T18:27:15.158Z,65.60
2019-04-27T18:29:44.402Z,66.00
2019-04-27T18:32:13.912Z,65.40
2019-04-27T18:34:45.265Z,66.70
2019-04-27T18:37:21.334Z,65.80
2019-04-27T18:39:53.344Z,65.60
2019-04-27T18:42:18.188Z,66.30
2019-04-27T18:44:48.568Z,66.00
2019-04-27T18:47:19.011Z,65.70
2019-04-27T18:50:08.029Z,65.80
2019-04-27T18:52:40.785Z,66.50
2019-04-27T18:55:10.959Z,65.90
2019-04-27T18:57:39.236Z,66.80
2019-04-27T19:00:14.059Z,66.80
2019-04-27T19:02:44.722Z,67.60
2019-04-27T19:05:16.115Z,67.70
2019-04-27T19:07:48.435Z,67.90
2019-04-27T19:10:19.337Z,68.20
2019-04-27T19:12:49.773Z,68.20
2019-04-27T19:15:21.090Z,68.30
2019-04-27T19:17:53.893Z,68.80
2019-04-27T19:20:24.287Z,68.80
2019-04-27T19:22:53.627Z,69.30
2019-04-27T19:25:28.777Z,68.60
2019-04-27T19:28:09.314Z,69.50
2019-04-27T19:30:47.742Z,69.50
2019-04-27T19:33:18.119Z,69.10
2019-04-27T19:35:49.219Z,68.40
2019-04-27T19:38:21.249Z,68.80
2019-04-27T19:40:54.071Z,67.70
2019-04-27T19:43:28.358Z,68.00
2019-04-27T19:46:02.808Z,67.40
2019-04-27T19:48:32.907Z,67.30
2019-04-27T19:51:02.300Z,67.40
2019-04-27T19:53:31.889Z,66.60
2019-04-27T19:56:04.698Z,67.00
2019-04-27T19:58:36.011Z,65.90
2019-04-27T20:01:13.857Z,65.80
2019-04-27T20:03:41.975Z,65.90
2019-04-27T20:06:11.279Z,65.80
2019-04-27T20:08:45.601Z,65.60
2019-04-27T20:11:15.046Z,65.60
2019-04-27T20:13:45.754Z,65.60
2019-04-27T20:16:16.164Z,65.60
2019-04-27T20:18:46.231Z,65.50
2019-04-27T20:21:20.898Z,65.40
2019-04-27T20:23:51.765Z,65.90
2019-04-27T20:26:22.978Z,65.20
2019-04-27T20:28:54.375Z,65.10
2019-04-27T20:31:23.968Z,65.20
2019-04-27T20:33:54.620Z,65.20
2019-04-27T20:36:27.077Z,65.20
2019-04-27T20:39:01.271Z,65.30
2019-04-27T20:41:34.704Z,65.80
2019-04-27T20:44:08.051Z,65.40
2019-04-27T20:46:38.070Z,65.50
2019-04-27T20:49:22.168Z,65.90
2019-04-27T20:52:02.315Z,65.40
2019-04-27T20:54:32.683Z,65.40
2019-04-27T20:57:02.065Z,65.20
2019-04-27T20:59:31.512Z,65.30
2019-04-27T21:02:02.242Z,65.40
2019-04-27T21:04:33.091Z,66.00
2019-04-27T21:07:07.139Z,65.30
2019-04-27T21:09:35.615Z,65.40
2019-04-27T21:12:04.884Z,65.80
2019-04-27T21:14:34.225Z,65.80
2019-04-27T21:17:04.833Z,65.70
2019-04-27T21:19:34.937Z,65.20
2019-04-27T21:22:04.352Z,65.20
2019-04-27T21:24:34.254Z,65.10
2019-04-27T21:27:03.965Z,65.60
2019-04-27T21:29:33.208Z,65.10
2019-04-27T21:32:03.701Z,64.90
2019-04-27T21:34:33.333Z,65.50
2019-04-27T21:37:02.655Z,65.50
2019-04-27T21:39:32.095Z,64.80
2019-04-27T21:42:01.533Z,64.90
2019-04-27T21:44:31.977Z,65.30
2019-04-27T21:47:01.420Z,64.80
2019-04-27T21:49:31.459Z,64.50
2019-04-27T21:52:02.615Z,64.40
2019-04-27T21:54:33.648Z,64.30
2019-04-27T21:57:03.569Z,64.60
2019-04-27T21:59:32.741Z,64.20
2019-04-27T22:02:03.548Z,64.20
2019-04-27T22:04:33.002Z,64.10
2019-04-27T22:07:02.367Z,63.20
2019-04-27T22:09:31.730Z,63.90
2019-04-27T22:12:02.570Z,63.90
2019-04-27T22:14:31.943Z,63.10
2019-04-27T22:17:01.700Z,63.70
2019-04-27T22:19:31.462Z,63.30
2019-04-27T22:22:02.547Z,63.60
2019-04-27T22:24:33.554Z,62.90
2019-04-27T22:27:03.100Z,62.00
2019-04-27T22:29:32.391Z,62.20
2019-04-27T22:32:01.845Z,62.90
2019-04-27T22:34:31.518Z,62.60
2019-04-27T22:37:02.633Z,61.70
2019-04-27T22:39:39.381Z,61.70
2019-04-27T22:42:26.869Z,61.40
2019-04-27T22:44:57.563Z,61.30
2019-04-27T22:47:26.939Z,61.30
2019-04-27T22:49:56.346Z,61.40
2019-04-27T22:52:25.604Z,61.30
2019-04-27T22:54:54.864Z,61.90
2019-04-27T22:57:25.633Z,60.90
2019-04-27T23:00:13.025Z,60.70
2019-04-27T23:02:43.949Z,60.70
2019-04-27T23:05:13.154Z,61.50
2019-04-27T23:07:42.604Z,61.20
2019-04-27T23:10:11.659Z,60.60
2019-04-27T23:12:41.920Z,60.80
2019-04-27T23:15:12.576Z,60.90
2019-04-27T23:17:52.435Z,60.90
2019-04-27T23:20:21.763Z,61.10
2019-04-27T23:22:50.986Z,60.70
2019-04-27T23:25:20.127Z,61.00
2019-04-27T23:27:51.283Z,61.70
2019-04-27T23:30:21.624Z,61.00
2019-04-27T23:32:52.424Z,61.10
2019-04-27T23:35:21.535Z,61.70
2019-04-27T23:37:52.701Z,61.70
2019-04-27T23:40:21.976Z,61.20
2019-04-27T23:42:51.674Z,61.10
2019-04-27T23:45:22.409Z,61.30
2019-04-27T23:47:51.833Z,61.10
2019-04-27T23:50:21.899Z,61.30
2019-04-27T23:52:52.832Z,61.80
2019-04-27T23:55:23.483Z,61.30
2019-04-27T23:57:52.839Z,61.40
